Time;durP1;ratioP1;P1;durP2;ratioP2;P2;SDS_P1;SDS_P2;PMS_P1;PMS_P2;Temp;Humidity;BMP_temperature;BMP_pressure;BME280_temperature;BME280_humidity;BME280_pressure;Samples;Min_cycle;Max_cycle;Signal;HPM_P1;HPM_P2
2021/12/03 00:00:51;;;;;;;0.10;0.10;;;;;;;;;;5086114;28;20024;-69
2021/12/03 00:03:17;;;;;;;0.20;0.08;;;;;;;;;;5087981;28;20362;-68
2021/12/03 00:05:43;;;;;;;0.30;0.10;;;;;;;;;;5067548;28;20539;-68
2021/12/03 00:08:09;;;;;;;0.28;0.20;;;;;;;;;;5090540;28;20055;-68
2021/12/03 00:10:36;;;;;;;0.00;0.00;;;;;;;;;;5078160;28;20421;-68
2021/12/03 00:13:04;;;;;;;1.00;0.20;;;;;;;;;;5091869;28;20028;-68
2021/12/03 00:15:30;;;;;;;0.52;0.17;;;;;;;;;;5089687;28;20035;-68
2021/12/03 00:17:56;;;;;;;0.57;0.30;;;;;;;;;;5089875;28;20103;-69
2021/12/03 00:20:24;;;;;;;1.08;0.20;;;;;;;;;;5082683;28;20039;-68
2021/12/03 00:22:52;;;;;;;0.70;0.20;;;;;;;;;;5092512;28;20477;-69
2021/12/03 00:25:18;;;;;;;0.63;0.20;;;;;;;;;;5091152;28;20109;-68
2021/12/03 00:27:44;;;;;;;0.93;0.30;;;;;;;;;;5089732;28;20058;-69
2021/12/03 00:30:11;;;;;;;0.20;0.17;;;;;;;;;;5067535;28;20035;-69
2021/12/03 00:32:37;;;;;;;0.10;0.10;;;;;;;;;;5089950;28;20056;-68
2021/12/03 00:35:04;;;;;;;0.00;0.00;;;;;;;;;;5090124;28;20751;-68
2021/12/03 00:37:30;;;;;;;0.77;0.17;;;;;;;;;;5093227;28;20032;-68
2021/12/03 00:39:56;;;;;;;0.00;0.00;;;;;;;;;;5079000;28;20024;-68
2021/12/03 00:42:23;;;;;;;0.70;0.22;;;;;;;;;;5084351;28;20028;-68
2021/12/03 00:44:52;;;;;;;0.20;0.10;;;;;;;;;;5089577;28;20016;-68
2021/12/03 00:47:19;;;;;;;0.32;0.28;;;;;;;;;;5089572;28;20017;-68
2021/12/03 00:49:45;;;;;;;0.10;0.10;;;;;;;;;;5083654;28;20102;-68
2021/12/03 00:52:11;;;;;;;0.00;0.00;;;;;;;;;;5100951;28;20023;-68
2021/12/03 00:54:37;;;;;;;0.38;0.10;;;;;;;;;;5092809;28;20537;-70
2021/12/03 00:57:03;;;;;;;0.10;0.10;;;;;;;;;;5089368;28;20449;-68
2021/12/03 00:59:30;;;;;;;0.00;0.00;;;;;;;;;;5089760;28;20024;-68
2021/12/03 01:01:56;;;;;;;1.60;0.20;;;;;;;;;;5091218;28;20476;-68
2021/12/03 01:04:22;;;;;;;0.10;0.10;;;;;;;;;;5091226;28;20032;-68
2021/12/03 01:06:48;;;;;;;0.30;0.20;;;;;;;;;;5088847;28;20114;-68
2021/12/03 01:09:14;;;;;;;0.03;0.03;;;;;;;;;;5084745;28;20020;-68
2021/12/03 01:11:40;;;;;;;0.65;0.28;;;;;;;;;;5079445;28;20023;-68
2021/12/03 01:14:06;;;;;;;1.33;0.70;;;;;;;;;;5088867;28;20024;-68
2021/12/03 01:16:33;;;;;;;0.10;0.10;;;;;;;;;;5087923;28;20032;-69
2021/12/03 01:18:59;;;;;;;2.67;0.45;;;;;;;;;;5086459;28;20020;-69
2021/12/03 01:21:25;;;;;;;0.20;0.10;;;;;;;;;;5084047;28;20035;-69
2021/12/03 01:23:52;;;;;;;0.10;0.10;;;;;;;;;;5088892;28;20013;-69
2021/12/03 01:26:19;;;;;;;0.80;0.20;;;;;;;;;;5089197;28;20368;-69
2021/12/03 01:28:45;;;;;;;0.10;0.10;;;;;;;;;;5090176;28;20086;-69
2021/12/03 01:31:11;;;;;;;0.00;0.00;;;;;;;;;;5089882;28;20480;-69
2021/12/03 01:33:37;;;;;;;0.80;0.10;;;;;;;;;;5088985;28;20046;-69
2021/12/03 01:36:03;;;;;;;0.10;0.10;;;;;;;;;;5088356;28;20031;-69
2021/12/03 01:38:29;;;;;;;0.57;0.10;;;;;;;;;;5088810;28;20031;-68
2021/12/03 01:40:55;;;;;;;0.00;0.00;;;;;;;;;;5074289;28;20477;-69
2021/12/03 01:43:24;;;;;;;0.45;0.10;;;;;;;;;;5072099;28;20384;-68
2021/12/03 01:45:50;;;;;;;;;;;;;;;;;;5088174;28;20441;-69
2021/12/03 01:48:16;;;;;;;0.10;0.10;;;;;;;;;;5088492;28;20186;-69
2021/12/03 01:50:43;;;;;;;0.17;0.10;;;;;;;;;;5080525;28;20083;-69
2021/12/03 01:53:10;;;;;;;0.00;0.00;;;;;;;;;;5088615;28;20024;-69
2021/12/03 01:55:37;;;;;;;0.10;0.10;;;;;;;;;;5091703;28;20524;-69
2021/12/03 01:58:03;;;;;;;0.03;0.03;;;;;;;;;;5089368;28;20102;-69
2021/12/03 02:00:35;;;;;;;0.75;0.10;;;;;;;;;;5088069;28;20039;-68
2021/12/03 02:03:01;;;;;;;0.32;0.17;;;;;;;;;;5088373;28;20035;-68
2021/12/03 02:05:28;;;;;;;0.10;0.10;;;;;;;;;;5069926;28;20834;-68
2021/12/03 02:07:54;;;;;;;0.40;0.20;;;;;;;;;;5090289;28;20107;-69
2021/12/03 02:10:21;;;;;;;0.00;0.00;;;;;;;;;;5075208;28;20120;-69
2021/12/03 02:12:47;;;;;;;0.25;0.10;;;;;;;;;;5086081;28;20505;-68
2021/12/03 02:15:13;;;;;;;0.00;0.00;;;;;;;;;;5087942;28;20028;-69
2021/12/03 02:17:39;;;;;;;0.30;0.22;;;;;;;;;;5088036;28;20365;-68
2021/12/03 02:20:06;;;;;;;1.02;0.20;;;;;;;;;;5071622;28;20438;-69
2021/12/03 02:22:32;;;;;;;0.28;0.15;;;;;;;;;;5086694;28;20380;-69
2021/12/03 02:24:58;;;;;;;0.00;0.00;;;;;;;;;;5087875;28;20023;-69
2021/12/03 02:27:24;;;;;;;0.22;0.00;;;;;;;;;;5087491;28;20457;-69
2021/12/03 02:29:50;;;;;;;0.28;0.20;;;;;;;;;;5087469;28;20118;-69
2021/12/03 02:32:16;;;;;;;0.10;0.10;;;;;;;;;;5087647;28;20149;-69
2021/12/03 02:34:42;;;;;;;0.22;0.10;;;;;;;;;;5089847;28;20119;-69
2021/12/03 02:37:08;;;;;;;0.20;0.10;;;;;;;;;;5090151;28;20028;-68
2021/12/03 02:39:35;;;;;;;0.45;0.22;;;;;;;;;;5080395;28;20436;-69
2021/12/03 02:42:00;;;;;;;0.35;0.20;;;;;;;;;;5078903;28;20028;-69
2021/12/03 02:44:26;;;;;;;0.10;0.10;;;;;;;;;;5069484;28;20031;-69
2021/12/03 02:46:52;;;;;;;0.70;0.20;;;;;;;;;;5089833;28;20361;-68
2021/12/03 02:49:18;;;;;;;0.52;0.28;;;;;;;;;;5083481;28;20041;-69
2021/12/03 02:51:45;;;;;;;0.15;0.15;;;;;;;;;;5085084;28;20036;-68
2021/12/03 02:54:11;;;;;;;0.65;0.20;;;;;;;;;;5087553;28;20572;-69
2021/12/03 02:56:37;;;;;;;0.35;0.10;;;;;;;;;;5087050;28;20085;-68
2021/12/03 02:59:04;;;;;;;0.10;0.03;;;;;;;;;;5088121;28;20036;-69
2021/12/03 03:01:30;;;;;;;0.52;0.10;;;;;;;;;;5090199;28;20028;-69
2021/12/03 03:03:56;;;;;;;0.20;0.13;;;;;;;;;;5086979;28;20037;-69
2021/12/03 03:06:25;;;;;;;0.43;0.10;;;;;;;;;;5087563;28;20032;-69
2021/12/03 03:08:51;;;;;;;0.08;0.00;;;;;;;;;;5086318;28;20024;-68
2021/12/03 03:11:18;;;;;;;0.17;0.10;;;;;;;;;;5072064;28;20032;-69
2021/12/03 03:13:45;;;;;;;0.10;0.10;;;;;;;;;;5089638;28;20012;-69
2021/12/03 03:16:11;;;;;;;0.28;0.10;;;;;;;;;;5070385;28;20057;-69
2021/12/03 03:18:37;;;;;;;0.15;0.15;;;;;;;;;;5087271;28;20024;-69
2021/12/03 03:21:04;;;;;;;0.25;0.10;;;;;;;;;;5078915;28;20089;-68
2021/12/03 03:23:31;;;;;;;0.25;0.13;;;;;;;;;;5087654;28;20115;-69
2021/12/03 03:25:58;;;;;;;0.00;0.00;;;;;;;;;;5088326;28;20058;-69
2021/12/03 03:28:24;;;;;;;0.00;0.00;;;;;;;;;;5089278;28;20028;-69
2021/12/03 03:30:52;;;;;;;0.20;0.20;;;;;;;;;;5078458;28;20043;-69
2021/12/03 03:33:18;;;;;;;0.13;0.10;;;;;;;;;;5081176;28;20496;-68
2021/12/03 03:35:44;;;;;;;0.20;0.10;;;;;;;;;;5087032;28;20036;-68
2021/12/03 03:38:10;;;;;;;0.40;0.10;;;;;;;;;;5088378;28;20042;-69
2021/12/03 03:40:37;;;;;;;0.17;0.13;;;;;;;;;;5078305;28;20032;-69
2021/12/03 03:43:05;;;;;;;0.10;0.10;;;;;;;;;;5092007;28;20027;-68
2021/12/03 03:45:31;;;;;;;0.10;0.10;;;;;;;;;;5091033;28;20023;-68
2021/12/03 03:47:57;;;;;;;0.10;0.10;;;;;;;;;;5090867;28;20388;-68
2021/12/03 03:50:24;;;;;;;0.10;0.10;;;;;;;;;;5064888;28;20063;-68
2021/12/03 03:52:51;;;;;;;0.20;0.20;;;;;;;;;;5092328;28;20032;-68
2021/12/03 03:55:18;;;;;;;0.25;0.22;;;;;;;;;;5091876;28;20055;-68
2021/12/03 03:57:45;;;;;;;0.50;0.20;;;;;;;;;;5090847;28;20161;-68
2021/12/03 04:00:14;;;;;;;0.25;0.15;;;;;;;;;;5090637;28;20043;-68
2021/12/03 04:02:40;;;;;;;0.00;0.00;;;;;;;;;;5090540;28;20104;-68
2021/12/03 04:05:07;;;;;;;0.10;0.10;;;;;;;;;;5090749;28;20421;-68
2021/12/03 04:07:33;;;;;;;0.30;0.10;;;;;;;;;;5089755;28;20032;-68
2021/12/03 04:09:59;;;;;;;0.10;0.00;;;;;;;;;;5079424;28;20045;-68
2021/12/03 04:12:25;;;;;;;0.32;0.00;;;;;;;;;;5085212;28;20031;-68
2021/12/03 04:14:51;;;;;;;0.43;0.10;;;;;;;;;;5089903;28;20518;-68
2021/12/03 04:17:17;;;;;;;0.47;0.20;;;;;;;;;;5090211;28;20339;-68
2021/12/03 04:19:43;;;;;;;0.60;0.38;;;;;;;;;;5085247;28;20388;-69
2021/12/03 04:22:14;;;;;;;0.47;0.20;;;;;;;;;;5092550;28;20031;-68
2021/12/03 04:24:40;;;;;;;0.00;0.00;;;;;;;;;;5089828;28;20030;-68
2021/12/03 04:27:06;;;;;;;0.13;0.13;;;;;;;;;;5088238;28;20028;-68
2021/12/03 04:29:32;;;;;;;0.98;0.10;;;;;;;;;;5091784;28;20040;-68
2021/12/03 04:31:58;;;;;;;0.30;0.00;;;;;;;;;;5091933;28;20046;-68
2021/12/03 04:34:24;;;;;;;0.10;0.10;;;;;;;;;;5091431;28;20031;-68
2021/12/03 04:36:50;;;;;;;0.30;0.20;;;;;;;;;;5091341;28;20032;-68
2021/12/03 04:39:16;;;;;;;0.63;0.25;;;;;;;;;;5087743;28;20024;-70
2021/12/03 04:41:42;;;;;;;1.17;0.13;;;;;;;;;;5089300;28;20028;-68
2021/12/03 04:44:08;;;;;;;0.20;0.00;;;;;;;;;;5089830;28;20165;-67
2021/12/03 04:46:34;;;;;;;0.32;0.20;;;;;;;;;;5092938;28;20046;-67
2021/12/03 04:49:00;;;;;;;0.60;0.40;;;;;;;;;;5086342;28;20406;-69
2021/12/03 04:51:27;;;;;;;0.10;0.10;;;;;;;;;;5084095;28;20111;-69
2021/12/03 04:53:53;;;;;;;1.85;0.68;;;;;;;;;;5089224;28;20024;-69
2021/12/03 04:56:19;;;;;;;0.77;0.17;;;;;;;;;;5089423;28;20103;-69
2021/12/03 04:58:44;;;;;;;0.32;0.17;;;;;;;;;;5091930;28;20028;-69
2021/12/03 05:01:10;;;;;;;0.20;0.20;;;;;;;;;;5090775;28;20059;-69
2021/12/03 05:03:37;;;;;;;0.20;0.17;;;;;;;;;;5089050;28;20147;-69
2021/12/03 05:06:04;;;;;;;2.25;0.20;;;;;;;;;;5088531;28;20042;-69
2021/12/03 05:08:31;;;;;;;0.15;0.13;;;;;;;;;;5089484;28;20495;-69
2021/12/03 05:10:58;;;;;;;0.10;0.10;;;;;;;;;;5074939;28;20047;-69
2021/12/03 05:13:26;;;;;;;0.43;0.20;;;;;;;;;;5091318;28;20057;-69
2021/12/03 05:15:52;;;;;;;0.10;0.10;;;;;;;;;;5088462;28;20056;-69
2021/12/03 05:18:19;;;;;;;0.40;0.10;;;;;;;;;;5089096;28;20451;-69
2021/12/03 05:20:46;;;;;;;0.40;0.37;;;;;;;;;;5084169;28;20099;-69
2021/12/03 05:23:12;;;;;;;0.10;0.10;;;;;;;;;;5088917;28;20036;-69
2021/12/03 05:25:39;;;;;;;0.20;0.10;;;;;;;;;;5091700;28;20381;-69
2021/12/03 05:28:05;;;;;;;0.10;0.10;;;;;;;;;;5088790;28;20032;-69
2021/12/03 05:30:31;;;;;;;0.20;0.20;;;;;;;;;;5088580;28;20040;-69
2021/12/03 05:32:57;;;;;;;0.38;0.15;;;;;;;;;;5088819;28;20043;-69
2021/12/03 05:35:24;;;;;;;0.50;0.25;;;;;;;;;;5088477;28;20085;-69
2021/12/03 05:37:50;;;;;;;5.47;0.60;;;;;;;;;;5090968;28;20024;-69
2021/12/03 05:40:17;;;;;;;0.38;0.20;;;;;;;;;;5076569;28;20028;-69
2021/12/03 05:42:45;;;;;;;0.20;0.20;;;;;;;;;;5085498;28;20590;-69
2021/12/03 05:45:12;;;;;;;0.25;0.20;;;;;;;;;;5088626;28;20028;-69
2021/12/03 05:47:38;;;;;;;0.82;0.10;;;;;;;;;;5088859;28;20489;-69
2021/12/03 05:50:05;;;;;;;0.13;0.13;;;;;;;;;;5080304;28;20052;-69
2021/12/03 05:52:31;;;;;;;0.32;0.20;;;;;;;;;;5091644;28;20469;-69
2021/12/03 05:54:57;;;;;;;0.40;0.30;;;;;;;;;;5088121;28;20024;-69
2021/12/03 05:57:23;;;;;;;1.55;0.35;;;;;;;;;;5088141;28;20427;-65
2021/12/03 05:59:49;;;;;;;0.40;0.32;;;;;;;;;;5088348;28;20028;-65
2021/12/03 06:02:15;;;;;;;0.30;0.30;;;;;;;;;;5087438;28;20029;-65
2021/12/03 06:04:41;;;;;;;0.40;0.20;;;;;;;;;;5090172;28;20404;-65
2021/12/03 06:07:07;;;;;;;0.35;0.30;;;;;;;;;;5089018;28;20099;-67
2021/12/03 06:09:33;;;;;;;0.47;0.10;;;;;;;;;;5065086;28;20143;-64
2021/12/03 06:12:01;;;;;;;0.40;0.30;;;;;;;;;;5088054;28;20119;-65
2021/12/03 06:14:28;;;;;;;1.20;0.30;;;;;;;;;;5087692;28;20085;-64
2021/12/03 06:16:54;;;;;;;0.25;0.20;;;;;;;;;;5089175;28;20280;-63
2021/12/03 06:19:20;;;;;;;1.20;0.20;;;;;;;;;;5084561;28;20111;-67
2021/12/03 06:21:46;;;;;;;1.50;0.50;;;;;;;;;;5085598;28;20100;-67
2021/12/03 06:24:12;;;;;;;1.33;0.40;;;;;;;;;;5087565;28;20480;-65
2021/12/03 06:26:38;;;;;;;0.30;0.30;;;;;;;;;;5087922;28;20027;-66
2021/12/03 06:29:04;;;;;;;1.20;0.60;;;;;;;;;;5070208;28;20044;-65
2021/12/03 06:31:30;;;;;;;1.30;0.52;;;;;;;;;;5090843;28;20040;-64
2021/12/03 06:33:56;;;;;;;0.52;0.30;;;;;;;;;;5087162;28;20034;-67
2021/12/03 06:36:23;;;;;;;0.60;0.30;;;;;;;;;;5087456;28;20032;-68
2021/12/03 06:38:49;;;;;;;1.00;0.50;;;;;;;;;;5086862;28;20050;-67
2021/12/03 06:41:15;;;;;;;3.22;0.60;;;;;;;;;;5073044;28;20401;-67
2021/12/03 06:43:41;;;;;;;3.80;0.50;;;;;;;;;;5090649;28;20032;-67
2021/12/03 06:46:07;;;;;;;1.80;0.70;;;;;;;;;;5087826;28;20024;-70
2021/12/03 06:48:33;;;;;;;1.20;0.50;;;;;;;;;;5082487;28;20039;-67
2021/12/03 06:51:00;;;;;;;0.82;0.47;;;;;;;;;;5078744;28;20075;-67
2021/12/03 06:53:37;;;;;;;1.10;0.63;;;;;;;;;;5087633;28;20454;-61
2021/12/03 06:56:05;;;;;;;0.50;0.50;;;;;;;;;;5087972;28;20557;-61
2021/12/03 06:58:31;;;;;;;1.08;0.40;;;;;;;;;;5082918;28;20498;-61
2021/12/03 07:00:59;;;;;;;1.17;0.50;;;;;;;;;;5086744;28;20469;-60
2021/12/03 07:03:25;;;;;;;2.93;0.50;;;;;;;;;;5087294;28;20396;-60
2021/12/03 07:05:51;;;;;;;1.92;0.65;;;;;;;;;;5086310;28;20656;-60
2021/12/03 07:08:17;;;;;;;1.77;0.75;;;;;;;;;;5087551;28;20531;-60
2021/12/03 07:10:43;;;;;;;1.27;0.55;;;;;;;;;;5073908;28;20119;-60
2021/12/03 07:13:09;;;;;;;2.65;0.68;;;;;;;;;;5092170;28;20024;-60
2021/12/03 07:15:36;;;;;;;2.53;0.68;;;;;;;;;;5090616;28;20028;-60
2021/12/03 07:18:02;;;;;;;1.00;0.52;;;;;;;;;;5091110;28;20073;-60
2021/12/03 07:20:28;;;;;;;0.77;0.50;;;;;;;;;;5083711;28;20035;-60
2021/12/03 07:22:55;;;;;;;1.48;0.55;;;;;;;;;;5093249;28;20036;-60
2021/12/03 07:25:21;;;;;;;2.22;0.65;;;;;;;;;;5092856;28;20016;-60
2021/12/03 07:27:48;;;;;;;1.52;0.60;;;;;;;;;;5090595;28;20024;-60
2021/12/03 07:30:15;;;;;;;1.45;0.68;;;;;;;;;;5091043;28;20036;-60
2021/12/03 07:32:41;;;;;;;2.08;0.60;;;;;;;;;;5090181;28;20107;-60
2021/12/03 07:35:08;;;;;;;0.55;0.40;;;;;;;;;;5091138;28;20024;-60
2021/12/03 07:37:34;;;;;;;1.50;0.50;;;;;;;;;;5090318;28;20134;-60
2021/12/03 07:40:04;;;;;;;2.28;0.40;;;;;;;;;;5079688;28;20028;-60
2021/12/03 07:42:30;;;;;;;8.80;1.40;;;;;;;;;;5086204;28;20107;-60
2021/12/03 07:44:56;;;;;;;2.22;0.85;;;;;;;;;;5090545;28;20472;-60
2021/12/03 07:47:22;;;;;;;4.68;1.05;;;;;;;;;;5090841;28;20044;-60
2021/12/03 07:49:50;;;;;;;2.15;0.88;;;;;;;;;;5085093;28;20048;-60
2021/12/03 07:52:18;;;;;;;1.27;0.60;;;;;;;;;;5091472;28;20503;-60
2021/12/03 07:54:44;;;;;;;5.13;1.25;;;;;;;;;;5090805;28;20027;-60
2021/12/03 07:57:10;;;;;;;2.47;1.20;;;;;;;;;;5090525;28;20051;-60
2021/12/03 07:59:36;;;;;;;3.10;1.30;;;;;;;;;;5091006;28;20020;-61
2021/12/03 08:02:03;;;;;;;8.98;1.55;;;;;;;;;;5091390;28;20546;-61
2021/12/03 08:04:29;;;;;;;4.43;1.13;;;;;;;;;;5092961;28;20095;-61
2021/12/03 08:06:55;;;;;;;3.22;1.00;;;;;;;;;;5089753;28;20042;-61
2021/12/03 08:09:22;;;;;;;5.93;1.48;;;;;;;;;;5084927;28;20465;-61
2021/12/03 08:11:48;;;;;;;3.50;1.20;;;;;;;;;;5080260;28;20106;-61
2021/12/03 08:14:14;;;;;;;2.25;1.00;;;;;;;;;;5091111;28;20487;-61
2021/12/03 08:16:40;;;;;;;5.60;1.90;;;;;;;;;;5085559;28;20485;-61
2021/12/03 08:19:07;;;;;;;7.85;2.33;;;;;;;;;;5087213;28;20419;-62
2021/12/03 08:21:33;;;;;;;3.65;1.50;;;;;;;;;;5086204;28;20032;-61
2021/12/03 08:24:00;;;;;;;2.67;1.38;;;;;;;;;;5090473;28;20032;-62
2021/12/03 08:26:26;;;;;;;4.13;1.67;;;;;;;;;;5072325;28;20423;-61
2021/12/03 08:28:52;;;;;;;4.95;1.80;;;;;;;;;;5091753;28;20473;-61
2021/12/03 08:31:18;;;;;;;4.40;1.85;;;;;;;;;;5092262;28;20059;-62
2021/12/03 08:33:45;;;;;;;5.13;2.17;;;;;;;;;;5086499;28;20477;-61
2021/12/03 08:36:12;;;;;;;5.35;2.30;;;;;;;;;;5089582;28;20031;-60
2021/12/03 08:38:38;;;;;;;7.55;2.40;;;;;;;;;;5089723;28;20028;-61
2021/12/03 08:41:05;;;;;;;7.38;2.78;;;;;;;;;;5081718;28;20031;-61
2021/12/03 08:43:31;;;;;;;6.20;2.33;;;;;;;;;;5086973;28;20020;-61
2021/12/03 08:45:57;;;;;;;10.50;3.40;;;;;;;;;;5088559;28;20153;-61
2021/12/03 08:48:24;;;;;;;11.23;2.80;;;;;;;;;;5089503;28;20091;-61
2021/12/03 08:51:24;;;;;;;6.60;2.63;;;;;;;;;;5081692;28;20032;-61
2021/12/03 08:56:22;;;;;;;7.20;2.67;;;;;;;;;;5075636;28;20055;-61
2021/12/03 08:58:48;;;;;;;7.88;3.15;;;;;;;;;;5073553;28;20024;-61
2021/12/03 09:01:14;;;;;;;10.40;3.55;;;;;;;;;;5090126;28;20106;-61
2021/12/03 09:03:40;;;;;;;9.10;3.05;;;;;;;;;;5089309;28;20024;-61
2021/12/03 09:06:06;;;;;;;7.15;2.70;;;;;;;;;;5087109;28;20441;-61
2021/12/03 09:08:32;;;;;;;7.57;2.30;;;;;;;;;;5084720;28;20032;-60
2021/12/03 09:10:58;;;;;;;6.10;2.45;;;;;;;;;;5083773;28;20112;-61
2021/12/03 09:13:25;;;;;;;5.35;1.90;;;;;;;;;;5082974;28;20028;-61
2021/12/03 09:16:16;;;;;;;5.10;1.70;;;;;;;;;;5083591;28;20452;-61
2021/12/03 09:18:42;;;;;;;2.83;1.20;;;;;;;;;;5084733;28;20024;-61
2021/12/03 09:26:14;;;;;;;3.13;1.50;;;;;;;;;;5084917;28;20044;-61
2021/12/03 09:28:43;;;;;;;5.90;1.40;;;;;;;;;;5089318;28;20061;-61
2021/12/03 09:31:11;;;;;;;2.58;1.10;;;;;;;;;;5088831;28;20130;-61
2021/12/03 09:33:39;;;;;;;3.50;1.10;;;;;;;;;;5086365;28;20074;-61
2021/12/03 09:36:07;;;;;;;2.95;1.02;;;;;;;;;;5087324;28;20088;-61
2021/12/03 09:38:34;;;;;;;4.65;1.38;;;;;;;;;;5086378;28;20359;-61
2021/12/03 09:41:12;;;;;;;2.77;1.00;;;;;;;;;;5072234;28;20036;-61
2021/12/03 09:43:40;;;;;;;1.42;0.80;;;;;;;;;;5086228;28;20725;-61
2021/12/03 09:49:15;;;;;;;2.35;1.25;;;;;;;;;;5087605;28;20463;-61
2021/12/03 09:51:25;;;;;;;4.28;1.30;;;;;;;;;;5087612;28;20160;-61
2021/12/03 09:54:18;;;;;;;1.33;0.80;;;;;;;;;;5088112;28;20066;-61
2021/12/03 09:56:45;;;;;;;2.97;1.00;;;;;;;;;;5088279;28;20030;-61
2021/12/03 10:01:56;;;;;;;3.28;1.10;;;;;;;;;;5091141;28;20042;-61
2021/12/03 10:13:05;;;;;;;2.67;0.80;;;;;;;;;;5081950;28;20028;-61
2021/12/03 10:15:41;;;;;;;2.30;1.10;;;;;;;;;;5084532;28;20443;-61
2021/12/03 10:28:52;;;;;;;;;;;;;;;;;;5090769;28;20085;-61
2021/12/03 10:36:44;;;;;;;1.15;0.50;;;;;;;;;;5087876;28;20032;-60
2021/12/03 10:49:40;;;;;;;5.03;0.80;;;;;;;;;;5083938;28;20048;-60
2021/12/03 10:52:22;;;;;;;1.67;0.60;;;;;;;;;;5088010;28;20036;-60
2021/12/03 10:55:22;;;;;;;1.50;0.22;;;;;;;;;;5087416;28;20020;-60
2021/12/03 11:17:34;;;;;;;0.55;0.25;;;;;;;;;;5088481;28;20036;-60
2021/12/03 12:26:19;;;;;;;0.47;0.10;;;;;;;;;;5092500;28;20050;-60
2021/12/03 12:34:38;;;;;;;0.90;0.28;;;;;;;;;;5022193;28;20025;-60
2021/12/03 12:43:00;;;;;;;0.55;0.20;;;;;;;;;;5025666;28;20026;-60
2021/12/03 13:06:14;;;;;;;0.35;0.25;;;;;;;;;;5091929;28;20114;-59
2021/12/03 13:21:52;;;;;;;1.20;0.35;;;;;;;;;;5088939;28;20046;-60
2021/12/03 13:38:42;;;;;;;0.82;0.32;;;;;;;;;;5091007;28;20059;-60
2021/12/03 14:02:25;;;;;;;14.45;7.18;;;;;;;;;;5090162;28;20028;-60
2021/12/03 14:54:16;;;;;;;34.08;18.23;;;;;;;;;;5087215;28;20131;-59
2021/12/03 14:56:44;;;;;;;30.85;15.18;;;;;;;;;;5087760;28;20047;-59
2021/12/03 14:59:26;;;;;;;22.98;10.85;;;;;;;;;;5087352;28;20023;-59
2021/12/03 15:02:04;;;;;;;18.35;8.63;;;;;;;;;;5089791;28;20048;-59
2021/12/03 15:07:17;;;;;;;13.40;5.10;;;;;;;;;;5088354;28;20036;-60
2021/12/03 15:09:45;;;;;;;11.77;4.40;;;;;;;;;;5079057;28;20031;-59
2021/12/03 15:23:20;;;;;;;19.60;9.38;;;;;;;;;;5086812;28;20059;-61
2021/12/03 15:35:55;;;;;;;11.75;5.13;;;;;;;;;;5090753;28;20028;-60
2021/12/03 15:38:40;;;;;;;9.40;4.72;;;;;;;;;;5091292;28;20056;-60
2021/12/03 15:52:02;;;;;;;20.05;5.80;;;;;;;;;;5092953;28;20503;-60
2021/12/03 16:06:01;;;;;;;10.82;6.00;;;;;;;;;;5073841;28;20087;-60
2021/12/03 16:08:11;;;;;;;12.13;5.82;;;;;;;;;;5088886;28;20052;-60
2021/12/03 16:18:59;;;;;;;10.88;5.22;;;;;;;;;;5091460;28;20016;-60
2021/12/03 16:26:42;;;;;;;13.63;7.25;;;;;;;;;;5088828;28;20440;-60
2021/12/03 16:49:30;;;;;;;21.88;12.05;;;;;;;;;;5088883;28;20039;-62
2021/12/03 16:53:45;;;;;;;12.38;6.20;;;;;;;;;;5088204;28;20364;-62
2021/12/03 16:56:16;;;;;;;10.43;4.55;;;;;;;;;;5089006;28;20031;-62
2021/12/03 16:58:43;;;;;;;8.93;4.43;;;;;;;;;;5092465;28;20028;-62
2021/12/03 17:45:48;;;;;;;26.35;12.65;;;;;;;;;;5082123;28;20039;-60
2021/12/03 17:57:56;;;;;;;29.55;15.82;;;;;;;;;;5081197;28;20044;-59
2021/12/03 18:03:10;;;;;;;22.88;10.98;;;;;;;;;;5084606;28;20134;-59
2021/12/03 18:08:27;;;;;;;48.50;27.30;;;;;;;;;;5082758;28;20024;-58
2021/12/03 18:56:54;;;;;;;60.17;21.95;;;;;;;;;;5087097;28;20035;-62
2021/12/03 18:59:20;;;;;;;52.90;23.05;;;;;;;;;;5087275;28;20055;-62
2021/12/03 19:01:46;;;;;;;43.83;19.80;;;;;;;;;;5089199;28;20048;-62
2021/12/03 19:06:53;;;;;;;40.78;16.50;;;;;;;;;;5084732;28;20036;-62
2021/12/03 19:09:35;;;;;;;30.00;13.68;;;;;;;;;;5084334;28;20028;-61
2021/12/03 19:12:06;;;;;;;63.28;29.75;;;;;;;;;;5082253;28;20106;-61
2021/12/03 19:14:36;;;;;;;57.78;27.85;;;;;;;;;;5091391;28;20111;-61
2021/12/03 19:17:02;;;;;;;47.38;22.27;;;;;;;;;;5092036;28;20040;-61
2021/12/03 19:19:31;;;;;;;42.97;17.48;;;;;;;;;;5069220;28;20024;-62
2021/12/03 19:21:59;;;;;;;21.88;10.52;;;;;;;;;;5089489;28;20225;-62
2021/12/03 19:24:25;;;;;;;44.10;20.83;;;;;;;;;;5091137;28;20405;-61
2021/12/03 19:26:51;;;;;;;48.30;23.30;;;;;;;;;;5090701;28;20457;-62
2021/12/03 19:29:18;;;;;;;40.85;21.45;;;;;;;;;;5075828;28;20623;-61
2021/12/03 19:31:47;;;;;;;43.13;19.88;;;;;;;;;;5093569;28;20036;-61
2021/12/03 19:34:13;;;;;;;42.53;20.25;;;;;;;;;;5068017;28;20389;-64
2021/12/03 19:36:42;;;;;;;38.20;17.50;;;;;;;;;;5087054;28;20108;-64
2021/12/03 19:39:09;;;;;;;34.22;14.10;;;;;;;;;;5089863;28;20055;-60
2021/12/03 19:41:50;;;;;;;30.60;13.40;;;;;;;;;;5090985;28;20049;-59
2021/12/03 19:44:18;;;;;;;19.23;8.10;;;;;;;;;;5075965;28;20052;-60
2021/12/03 19:46:47;;;;;;;24.23;10.40;;;;;;;;;;5093256;28;20016;-60
2021/12/03 19:49:33;;;;;;;31.20;11.60;;;;;;;;;;5089358;28;20068;-61
2021/12/03 19:52:06;;;;;;;26.15;10.60;;;;;;;;;;5089312;28;20089;-59
2021/12/03 19:54:32;;;;;;;19.73;10.02;;;;;;;;;;5090220;28;20052;-60
2021/12/03 19:56:58;;;;;;;34.70;14.77;;;;;;;;;;5090397;28;20043;-59
2021/12/03 19:59:24;;;;;;;46.03;19.05;;;;;;;;;;5076506;28;20024;-59
2021/12/03 20:01:50;;;;;;;46.60;19.35;;;;;;;;;;5091796;28;20515;-60
2021/12/03 20:04:16;;;;;;;61.63;22.50;;;;;;;;;;5088520;28;20488;-65
2021/12/03 20:06:44;;;;;;;104.65;39.85;;;;;;;;;;5090388;28;20024;-72
2021/12/03 20:09:17;;;;;;;94.75;38.90;;;;;;;;;;5086190;28;20028;-60
2021/12/03 20:11:47;;;;;;;81.45;34.92;;;;;;;;;;5078890;28;20067;-58
2021/12/03 20:14:16;;;;;;;72.28;31.15;;;;;;;;;;5089630;28;20042;-62
2021/12/03 20:17:00;;;;;;;66.43;28.27;;;;;;;;;;5085170;28;20386;-61
2021/12/03 20:22:00;;;;;;;55.88;22.17;;;;;;;;;;5085980;28;20362;-61
2021/12/03 20:24:48;;;;;;;45.53;19.90;;;;;;;;;;5085140;28;20414;-62
2021/12/03 20:27:17;;;;;;;40.67;17.60;;;;;;;;;;5085127;28;20028;-61
2021/12/03 20:32:22;;;;;;;29.25;11.23;;;;;;;;;;5084375;28;20392;-61
2021/12/03 20:37:27;;;;;;;23.05;12.48;;;;;;;;;;5086490;28;20024;-64
2021/12/03 20:39:55;;;;;;;43.80;19.33;;;;;;;;;;5087118;28;20043;-63
2021/12/03 20:42:29;;;;;;;47.65;19.27;;;;;;;;;;5087716;28;20035;-61
2021/12/03 20:58:25;;;;;;;28.35;12.75;;;;;;;;;;5087582;28;20036;-62
2021/12/03 21:09:10;;;;;;;24.45;11.55;;;;;;;;;;5090242;28;20129;-64
2021/12/03 21:11:41;;;;;;;24.42;11.02;;;;;;;;;;5090861;28;20036;-64
2021/12/03 21:14:14;;;;;;;25.80;10.90;;;;;;;;;;5082857;28;20020;-63
2021/12/03 21:19:29;;;;;;;23.00;9.90;;;;;;;;;;5088846;28;20058;-64
2021/12/03 21:22:01;;;;;;;21.85;8.45;;;;;;;;;;5089090;28;20031;-62
2021/12/03 21:24:36;;;;;;;29.23;12.30;;;;;;;;;;5085567;28;20012;-63
2021/12/03 21:27:08;;;;;;;40.65;16.38;;;;;;;;;;5086594;28;20024;-62
2021/12/03 21:30:11;;;;;;;33.17;13.32;;;;;;;;;;5090181;28;20093;-63
2021/12/03 21:32:27;;;;;;;22.33;10.05;;;;;;;;;;5088547;28;20048;-63
2021/12/03 21:40:54;;;;;;;35.83;15.93;;;;;;;;;;5090763;28;20113;-63
2021/12/03 21:43:11;;;;;;;37.97;14.18;;;;;;;;;;5088645;28;20397;-64
2021/12/03 21:45:37;;;;;;;38.72;14.70;;;;;;;;;;5089660;28;20050;-63
2021/12/03 21:48:03;;;;;;;36.33;15.18;;;;;;;;;;5089297;28;20046;-64
2021/12/03 21:50:29;;;;;;;35.33;15.25;;;;;;;;;;5083642;28;20044;-63
2021/12/03 21:52:55;;;;;;;28.17;13.32;;;;;;;;;;5089506;28;20028;-62
2021/12/03 21:55:24;;;;;;;26.85;12.07;;;;;;;;;;5089381;28;20107;-62
2021/12/03 21:57:50;;;;;;;20.60;9.98;;;;;;;;;;5088541;28;20012;-63
2021/12/03 22:00:16;;;;;;;30.63;10.52;;;;;;;;;;5064816;28;20048;-63
2021/12/03 22:02:42;;;;;;;25.98;9.80;;;;;;;;;;5087042;28;20494;-62
2021/12/03 22:05:08;;;;;;;15.52;8.32;;;;;;;;;;5087302;28;20016;-63
2021/12/03 22:07:34;;;;;;;17.08;8.93;;;;;;;;;;5088362;28;20046;-62
2021/12/03 22:10:01;;;;;;;25.73;11.57;;;;;;;;;;5074933;28;20036;-62
2021/12/03 22:12:27;;;;;;;25.10;10.23;;;;;;;;;;5080828;28;20067;-62
2021/12/03 22:14:53;;;;;;;26.55;11.77;;;;;;;;;;5085833;28;20063;-63
2021/12/03 22:17:19;;;;;;;33.90;12.60;;;;;;;;;;5086255;28;20056;-62
2021/12/03 22:19:45;;;;;;;27.25;11.35;;;;;;;;;;5081483;28;20020;-62
2021/12/03 22:22:11;;;;;;;24.50;11.07;;;;;;;;;;5090087;28;20055;-62
2021/12/03 22:24:40;;;;;;;22.88;10.25;;;;;;;;;;5087289;28;20060;-63
2021/12/03 22:27:07;;;;;;;20.67;8.85;;;;;;;;;;5065438;28;20062;-62
2021/12/03 22:29:33;;;;;;;21.35;9.43;;;;;;;;;;5087811;28;20028;-62
2021/12/03 22:31:59;;;;;;;20.70;9.45;;;;;;;;;;5088866;28;20059;-63
2021/12/03 22:34:28;;;;;;;15.90;6.30;;;;;;;;;;5089202;28;20024;-63
2021/12/03 22:36:54;;;;;;;14.70;6.95;;;;;;;;;;5089121;28;20051;-62
2021/12/03 22:39:20;;;;;;;14.80;6.72;;;;;;;;;;5082376;28;20047;-62
2021/12/03 22:41:49;;;;;;;9.93;4.90;;;;;;;;;;5075320;28;20073;-62
2021/12/03 22:44:15;;;;;;;18.00;7.28;;;;;;;;;;5086015;28;20031;-62
2021/12/03 22:47:52;;;;;;;22.10;8.15;;;;;;;;;;5089846;28;20024;-64
2021/12/03 22:49:39;;;;;;;18.92;8.38;;;;;;;;;;5075928;28;20044;-62
2021/12/03 22:52:09;;;;;;;23.50;9.55;;;;;;;;;;5088420;28;20131;-64
2021/12/03 22:54:40;;;;;;;45.03;20.05;;;;;;;;;;5086309;28;20492;-63